Time;durP1;ratioP1;P1;durP2;ratioP2;P2;SDS_P1;SDS_P2;PMS_P1;PMS_P2;Temp;Humidity;BMP_temperature;BMP_pressure;BME280_temperature;BME280_humidity;BME280_pressure;Samples;Min_cycle;Max_cycle;Signal;HPM_P1;HPM_P2
2022/01/10 00:01:06;;;;;;;1.67;1.57;;;18.60;39.80;;;;;;5022330;28;20930;-66
2022/01/10 00:03:32;;;;;;;2.03;1.83;;;18.60;39.70;;;;;;5054026;28;20762;-66
2022/01/10 00:05:58;;;;;;;1.50;1.40;;;18.60;40.50;;;;;;5021019;28;20545;-66
2022/01/10 00:08:23;;;;;;;1.53;1.43;;;18.60;39.70;;;;;;5019273;28;20244;-66
2022/01/10 00:10:51;;;;;;;1.50;1.40;;;18.60;39.70;;;;;;5022797;28;20220;-66
2022/01/10 00:13:17;;;;;;;2.13;1.57;;;18.60;39.70;;;;;;5024540;28;20230;-66
2022/01/10 00:15:44;;;;;;;1.73;1.63;;;18.60;39.70;;;;;;5023119;28;20495;-66
2022/01/10 00:18:11;;;;;;;1.90;1.80;;;18.60;39.60;;;;;;5021272;28;20453;-66
2022/01/10 00:20:36;;;;;;;1.77;1.47;;;18.60;39.60;;;;;;5021767;28;20556;-66
2022/01/10 00:23:03;;;;;;;1.70;1.60;;;18.60;39.60;;;;;;5052924;28;20503;-67
2022/01/10 00:25:29;;;;;;;1.40;1.30;;;18.60;39.70;;;;;;5019825;28;20231;-66
2022/01/10 00:27:55;;;;;;;1.83;1.43;;;18.60;39.70;;;;;;5020813;28;20440;-65
2022/01/10 00:30:23;;;;;;;1.50;1.40;;;18.60;39.60;;;;;;5022730;28;20228;-67
2022/01/10 00:32:49;;;;;;;1.70;1.60;;;18.60;39.60;;;;;;5020445;28;20432;-67
2022/01/10 00:35:14;;;;;;;1.50;1.40;;;18.60;39.60;;;;;;5024336;28;20507;-67
2022/01/10 00:37:43;;;;;;;1.60;1.50;;;18.60;39.60;;;;;;5021351;28;20315;-66
2022/01/10 00:40:10;;;;;;;1.60;1.50;;;18.60;39.60;;;;;;5021751;28;20310;-66
2022/01/10 00:42:36;;;;;;;1.50;1.40;;;18.60;39.60;;;;;;5022850;28;20510;-67
2022/01/10 00:45:12;;;;;;;1.50;1.40;;;18.60;39.60;;;;;;5020287;28;20535;-66
2022/01/10 00:47:38;;;;;;;2.00;1.90;;;18.60;39.60;;;;;;5019406;28;20249;-66
2022/01/10 00:50:04;;;;;;;1.40;1.30;;;18.60;39.60;;;;;;5020816;28;20450;-66
2022/01/10 00:52:30;;;;;;;1.40;1.30;;;18.60;39.60;;;;;;5019837;28;20216;-66
2022/01/10 00:54:55;;;;;;;1.60;1.50;;;18.60;39.60;;;;;;5021875;28;20307;-67
2022/01/10 00:57:21;;;;;;;1.70;1.60;;;18.60;39.60;;;;;;5021356;28;20310;-66
2022/01/10 00:59:46;;;;;;;2.00;1.80;;;18.60;39.60;;;;;;5021598;28;20223;-66
2022/01/10 01:02:12;;;;;;;2.13;1.57;;;18.60;39.60;;;;;;5049848;28;20737;-66
2022/01/10 01:04:38;;;;;;;2.23;1.50;;;18.60;39.70;;;;;;5017296;28;20306;-67
2022/01/10 01:07:03;;;;;;;2.10;1.53;;;18.60;39.70;;;;;;5019567;28;21060;-66
2022/01/10 01:09:30;;;;;;;1.40;1.30;;;18.60;39.70;;;;;;5020715;28;20230;-68
2022/01/10 01:12:14;;;;;;;1.87;1.77;;;18.60;39.70;;;;;;5019083;28;20642;-67
2022/01/10 01:17:33;;;;;;;1.87;1.77;;;18.60;39.70;;;;;;5023302;28;20788;-66
2022/01/10 01:25:10;;;;;;;1.50;1.40;;;18.60;39.70;;;;;;5020536;28;20277;-67
2022/01/10 01:27:36;;;;;;;1.60;1.50;;;18.60;39.70;;;;;;5020309;28;20444;-67
2022/01/10 01:30:03;;;;;;;2.00;1.90;;;18.60;39.70;;;;;;5024064;28;20446;-67
2022/01/10 01:32:29;;;;;;;1.73;1.50;;;18.60;39.70;;;;;;5017891;28;20806;-67
2022/01/10 01:35:02;;;;;;;1.77;1.57;;;18.60;39.70;;;;;;5020109;28;20897;-67
2022/01/10 01:37:27;;;;;;;1.50;1.40;;;18.60;39.70;;;;;;5019619;28;20307;-67
2022/01/10 01:39:53;;;;;;;2.00;1.87;;;18.60;39.60;;;;;;5020682;28;20519;-67
2022/01/10 01:45:00;;;;;;;2.10;1.50;;;18.60;39.70;;;;;;5020488;28;20298;-67
2022/01/10 01:47:26;;;;;;;2.10;2.00;;;18.60;39.70;;;;;;5052471;28;21014;-67
2022/01/10 01:49:52;;;;;;;1.53;1.43;;;18.60;39.60;;;;;;5021524;28;20444;-67
2022/01/10 01:52:18;;;;;;;2.23;1.60;;;18.60;39.60;;;;;;5013932;28;20256;-67
2022/01/10 01:54:43;;;;;;;2.23;1.90;;;18.50;39.50;;;;;;5021124;28;20822;-66
2022/01/10 01:57:09;;;;;;;1.50;1.40;;;18.50;39.50;;;;;;5021566;28;20227;-67
2022/01/10 01:59:37;;;;;;;1.57;1.47;;;18.60;39.70;;;;;;5019745;28;20754;-67
2022/01/10 02:02:03;;;;;;;1.60;1.50;;;18.60;39.70;;;;;;5019092;28;20215;-66
2022/01/10 02:04:29;;;;;;;1.87;1.73;;;18.60;39.60;;;;;;5027658;28;20957;-67
2022/01/10 02:06:55;;;;;;;1.70;1.60;;;18.50;39.50;;;;;;5024109;28;20424;-66
2022/01/10 02:09:21;;;;;;;1.47;1.37;;;18.60;39.60;;;;;;5023101;28;20977;-66
2022/01/10 02:11:46;;;;;;;1.70;1.60;;;18.60;39.60;;;;;;5020454;28;20226;-67
2022/01/10 02:14:14;;;;;;;2.47;1.80;;;18.60;39.70;;;;;;5025994;28;20586;-67
2022/01/10 02:16:43;;;;;;;1.80;1.70;;;18.60;39.70;;;;;;5024293;28;20250;-66
2022/01/10 02:19:09;;;;;;;1.67;1.57;;;18.50;39.60;;;;;;5021730;28;20494;-70
2022/01/10 02:21:35;;;;;;;1.73;1.63;;;18.50;39.60;;;;;;5055880;28;20544;-72
2022/01/10 02:24:00;;;;;;;1.93;1.83;;;18.50;39.60;;;;;;5020210;28;20223;-69
2022/01/10 02:26:26;;;;;;;1.70;1.50;;;18.50;39.60;;;;;;5022682;28;20207;-69
2022/01/10 02:28:52;;;;;;;1.57;1.47;;;18.50;39.60;;;;;;5025690;28;20684;-68
2022/01/10 02:31:17;;;;;;;1.60;1.50;;;18.50;39.60;;;;;;5023651;28;20703;-69
2022/01/10 02:33:46;;;;;;;1.90;1.80;;;18.50;39.60;;;;;;5022123;28;20262;-67
2022/01/10 02:36:22;;;;;;;1.80;1.70;;;18.50;39.60;;;;;;5024596;28;20306;-67
2022/01/10 02:38:51;;;;;;;1.67;1.57;;;18.50;39.70;;;;;;5020021;28;20434;-67
2022/01/10 02:41:24;;;;;;;1.93;1.83;;;18.50;39.60;;;;;;5021681;28;20489;-67
2022/01/10 02:43:51;;;;;;;1.60;1.50;;;18.50;39.60;;;;;;5018589;28;20568;-67
2022/01/10 02:46:17;;;;;;;1.80;1.70;;;18.50;39.60;;;;;;5028037;28;20447;-67
2022/01/10 02:48:43;;;;;;;1.90;1.80;;;18.50;39.60;;;;;;5021929;28;20937;-67
2022/01/10 02:51:08;;;;;;;1.70;1.60;;;18.50;39.60;;;;;;5025490;28;20687;-67
2022/01/10 02:53:34;;;;;;;1.53;1.43;;;18.50;39.60;;;;;;5025702;28;20227;-67
2022/01/10 02:56:00;;;;;;;1.40;1.30;;;18.50;39.60;;;;;;5021129;28;20242;-67
2022/01/10 02:58:25;;;;;;;1.60;1.50;;;18.50;39.60;;;;;;5018283;28;20227;-69
2022/01/10 03:00:51;;;;;;;2.13;1.80;;;18.50;39.70;;;;;;5020223;28;20256;-67
2022/01/10 03:03:16;;;;;;;1.73;1.63;;;18.50;39.60;;;;;;5020987;28;20219;-67
2022/01/10 03:05:42;;;;;;;1.53;1.43;;;18.50;39.60;;;;;;5023255;28;20226;-68
2022/01/10 03:08:08;;;;;;;1.43;1.30;;;18.50;39.70;;;;;;5020686;28;20703;-67
2022/01/10 03:10:33;;;;;;;1.53;1.43;;;18.50;39.60;;;;;;5019389;28;20310;-67
2022/01/10 03:13:00;;;;;;;1.70;1.60;;;18.50;39.60;;;;;;5021402;28;20680;-66
2022/01/10 03:15:27;;;;;;;1.97;1.77;;;18.50;39.70;;;;;;5022811;28;20234;-67
2022/01/10 03:17:53;;;;;;;1.80;1.70;;;18.50;39.70;;;;;;5020376;28;20458;-67
2022/01/10 03:20:18;;;;;;;1.67;1.57;;;18.50;39.60;;;;;;5020973;28;20937;-67
2022/01/10 03:22:44;;;;;;;2.00;1.90;;;18.50;39.70;;;;;;5023670;28;20218;-67
2022/01/10 03:25:10;;;;;;;2.43;1.70;;;18.50;39.70;;;;;;5023607;28;20227;-67
2022/01/10 03:27:36;;;;;;;1.60;1.50;;;18.50;39.60;;;;;;5025360;28;20227;-67
2022/01/10 03:30:03;;;;;;;1.60;1.50;;;18.50;39.70;;;;;;5023243;28;20440;-67
2022/01/10 03:32:29;;;;;;;1.80;1.70;;;18.50;39.70;;;;;;5020611;28;20310;-67
2022/01/10 03:34:57;;;;;;;1.67;1.57;;;18.50;39.70;;;;;;5018579;28;21072;-67
2022/01/10 03:37:23;;;;;;;1.47;1.37;;;18.50;39.60;;;;;;5017986;28;20238;-67
2022/01/10 03:39:49;;;;;;;1.60;1.50;;;18.50;39.70;;;;;;5022733;28;20451;-67
2022/01/10 03:42:14;;;;;;;1.60;1.50;;;18.50;39.70;;;;;;5024017;28;20453;-67
2022/01/10 03:44:40;;;;;;;1.63;1.53;;;18.50;39.60;;;;;;5020425;28;20247;-67
2022/01/10 03:47:06;;;;;;;1.63;1.53;;;18.50;39.60;;;;;;5024868;28;20228;-67
2022/01/10 03:49:31;;;;;;;1.60;1.37;;;18.50;39.60;;;;;;5024352;28;20692;-67
2022/01/10 03:51:57;;;;;;;1.87;1.70;;;18.50;39.60;;;;;;5021964;28;20298;-67
2022/01/10 03:54:23;;;;;;;1.70;1.60;;;18.50;39.60;;;;;;5023460;28;20692;-67
2022/01/10 03:56:48;;;;;;;1.67;1.57;;;18.50;39.70;;;;;;5021723;28;20235;-67
2022/01/10 03:59:14;;;;;;;1.53;1.43;;;18.50;40.10;;;;;;5020876;28;20729;-66
2022/01/10 04:01:40;;;;;;;1.50;1.33;;;18.50;39.60;;;;;;5019491;28;20235;-67
2022/01/10 04:04:07;;;;;;;1.60;1.50;;;18.50;39.70;;;;;;5022886;28;20676;-67
2022/01/10 04:06:33;;;;;;;1.50;1.40;;;18.50;39.70;;;;;;5021777;28;20219;-67
2022/01/10 04:08:59;;;;;;;1.50;1.40;;;18.50;39.70;;;;;;5020484;28;20520;-67
2022/01/10 04:11:24;;;;;;;1.50;1.40;;;18.40;39.60;;;;;;5022136;28;20412;-67
2022/01/10 04:13:50;;;;;;;1.60;1.50;;;18.50;39.70;;;;;;5022857;28;20227;-67
2022/01/10 04:16:16;;;;;;;1.60;1.50;;;18.50;39.70;;;;;;5022782;28;20611;-67
2022/01/10 04:18:41;;;;;;;1.50;1.40;;;18.50;39.70;;;;;;5024487;28;20227;-67
2022/01/10 04:21:07;;;;;;;1.47;1.37;;;18.50;39.70;;;;;;5023402;28;20219;-67
2022/01/10 04:23:33;;;;;;;1.50;1.40;;;18.50;39.70;;;;;;5021074;28;20242;-67
2022/01/10 04:25:58;;;;;;;1.60;1.50;;;18.50;39.70;;;;;;5020956;28;20220;-67
2022/01/10 04:28:24;;;;;;;1.60;1.50;;;18.50;39.70;;;;;;5023895;28;20603;-67
2022/01/10 04:30:50;;;;;;;1.73;1.63;;;18.40;39.60;;;;;;5022970;28;20672;-66
2022/01/10 04:33:18;;;;;;;1.50;1.40;;;18.50;39.70;;;;;;5020629;28;20709;-67
2022/01/10 04:35:44;;;;;;;1.37;1.27;;;18.50;39.70;;;;;;5020309;28;20588;-67
2022/01/10 04:38:11;;;;;;;1.60;1.50;;;18.50;39.70;;;;;;5017049;28;20419;-67
2022/01/10 04:40:37;;;;;;;1.40;1.30;;;18.50;39.70;;;;;;5022633;28;20416;-67
2022/01/10 04:43:03;;;;;;;1.50;1.40;;;18.50;39.70;;;;;;5019638;28;20510;-67
2022/01/10 04:45:28;;;;;;;1.70;1.60;;;18.50;39.60;;;;;;5019384;28;20494;-67
2022/01/10 04:47:54;;;;;;;1.93;1.83;;;18.50;39.60;;;;;;5017867;28;20211;-67
2022/01/10 04:52:46;;;;;;;1.43;1.33;;;18.50;39.60;;;;;;5020440;28;20303;-67
2022/01/10 04:55:13;;;;;;;2.03;1.77;;;18.50;40.40;;;;;;5017925;28;20543;-67
2022/01/10 04:57:39;;;;;;;1.40;1.30;;;18.50;39.60;;;;;;5021031;28;20445;-67
2022/01/10 05:00:07;;;;;;;2.10;1.40;;;18.50;40.40;;;;;;5026731;28;20455;-65
2022/01/10 05:02:33;;;;;;;1.60;1.50;;;18.50;39.60;;;;;;5019628;28;20484;-69
2022/01/10 05:04:58;;;;;;;1.40;1.30;;;18.50;39.60;;;;;;5018905;28;21025;-66
2022/01/10 05:07:24;;;;;;;1.50;1.40;;;18.50;39.60;;;;;;5016717;28;20734;-66
2022/01/10 05:09:49;;;;;;;1.90;1.40;;;18.50;39.60;;;;;;5020196;28;20239;-66
2022/01/10 05:12:15;;;;;;;1.50;1.40;;;18.40;39.50;;;;;;5019484;28;20262;-66
2022/01/10 05:14:41;;;;;;;1.60;1.50;;;18.50;39.60;;;;;;5017592;28;20215;-65
2022/01/10 05:17:07;;;;;;;1.40;1.30;;;18.50;39.60;;;;;;5021802;28;20261;-66
2022/01/10 05:19:32;;;;;;;1.70;1.60;;;18.50;39.60;;;;;;5022062;28;20223;-66
2022/01/10 05:21:58;;;;;;;1.40;1.30;;;18.50;40.40;;;;;;5022027;28;20432;-66
2022/01/10 05:24:23;;;;;;;1.60;1.50;;;18.50;39.60;;;;;;5016704;28;20246;-66
2022/01/10 05:26:49;;;;;;;1.60;1.50;;;18.50;39.60;;;;;;5017633;28;20239;-65
2022/01/10 05:29:15;;;;;;;1.80;1.70;;;18.50;39.50;;;;;;5017616;28;20260;-66
2022/01/10 05:31:42;;;;;;;1.77;1.67;;;18.50;39.50;;;;;;5025184;28;20231;-84
2022/01/10 05:34:07;;;;;;;1.70;1.60;;;18.50;39.50;;;;;;5018132;28;20452;-80
2022/01/10 05:36:33;;;;;;;1.80;1.70;;;18.50;39.40;;;;;;5024443;28;20539;-79
2022/01/10 05:38:58;;;;;;;1.70;1.60;;;18.60;39.50;;;;;;5019126;28;20559;-74
2022/01/10 05:41:24;;;;;;;1.37;1.23;;;18.60;39.40;;;;;;5020345;28;20753;-74
2022/01/10 05:43:50;;;;;;;1.87;1.77;;;18.60;39.30;;;;;;5019409;28;20224;-72
2022/01/10 05:46:19;;;;;;;3.13;1.43;;;18.70;39.30;;;;;;5019641;28;20239;-73
2022/01/10 05:48:47;;;;;;;1.50;1.40;;;18.70;40.10;;;;;;5017748;28;20227;-74
2022/01/10 05:51:15;;;;;;;1.23;1.13;;;18.70;39.20;;;;;;5015482;28;20820;-69
2022/01/10 05:53:41;;;;;;;1.40;1.30;;;18.70;39.20;;;;;;5016274;28;20610;-72
2022/01/10 05:56:07;;;;;;;1.80;1.70;;;18.70;39.20;;;;;;5022281;28;20547;-70
2022/01/10 05:58:33;;;;;;;1.50;1.40;;;18.70;39.20;;;;;;5021634;28;20322;-73
2022/01/10 06:00:58;;;;;;;1.50;1.40;;;18.70;39.20;;;;;;5017450;28;20540;-72
2022/01/10 06:03:24;;;;;;;1.53;1.43;;;18.70;39.20;;;;;;5018304;28;20215;-77
2022/01/10 06:05:49;;;;;;;1.57;1.47;;;18.80;40.10;;;;;;5022642;28;20227;-77
2022/01/10 06:08:15;;;;;;;1.83;1.70;;;18.70;39.20;;;;;;5017238;28;20260;-75
2022/01/10 06:10:41;;;;;;;1.77;1.67;;;18.80;39.40;;;;;;5021214;28;20235;-74
2022/01/10 06:13:07;;;;;;;1.50;1.40;;;18.70;39.20;;;;;;5016639;28;20585;-76
2022/01/10 06:15:33;;;;;;;1.50;1.40;;;18.70;39.20;;;;;;5019265;28;20254;-76
2022/01/10 06:18:00;;;;;;;1.80;1.70;;;18.70;39.30;;;;;;5018146;28;20215;-77
2022/01/10 06:20:26;;;;;;;1.40;1.30;;;18.70;39.30;;;;;;5020418;28;20463;-84
2022/01/10 06:22:52;;;;;;;1.80;1.70;;;18.70;39.30;;;;;;5015376;28;20552;-80
2022/01/10 06:25:22;;;;;;;2.33;1.70;;;18.80;39.40;;;;;;5017111;28;20273;-68
2022/01/10 06:27:48;;;;;;;1.70;1.40;;;18.80;39.30;;;;;;5017597;28;20461;-80
2022/01/10 06:30:14;;;;;;;1.60;1.50;;;18.70;39.20;;;;;;5018525;28;20422;-70
2022/01/10 06:32:40;;;;;;;1.70;1.60;;;18.80;39.40;;;;;;5018400;28;20792;-79
2022/01/10 06:35:06;;;;;;;1.50;1.40;;;18.70;39.20;;;;;;5024259;28;20233;-74
2022/01/10 06:37:32;;;;;;;1.90;1.63;;;18.80;39.30;;;;;;5017571;28;20442;-73
2022/01/10 06:39:58;;;;;;;1.50;1.40;;;18.80;39.30;;;;;;5019743;28;21043;-76
2022/01/10 06:42:24;;;;;;;1.87;1.47;;;18.80;39.60;;;;;;5016712;28;20464;-74
2022/01/10 06:44:50;;;;;;;1.53;1.43;;;18.80;39.20;;;;;;5016813;28;20618;-68
2022/01/10 06:47:16;;;;;;;1.83;1.73;;;18.80;39.30;;;;;;5018288;28;20236;-69
2022/01/10 06:49:42;;;;;;;2.00;1.90;;;18.80;39.30;;;;;;5027664;28;20477;-69
2022/01/10 06:52:07;;;;;;;2.40;1.70;;;18.80;39.20;;;;;;5019334;28;20591;-68
2022/01/10 06:54:33;;;;;;;1.50;1.40;;;18.80;39.30;;;;;;5023724;28;20421;-65
2022/01/10 06:57:00;;;;;;;1.70;1.60;;;18.80;39.30;;;;;;5022345;28;20231;-65
2022/01/10 06:59:26;;;;;;;1.47;1.37;;;18.80;39.30;;;;;;5022196;28;20227;-66
2022/01/10 07:01:55;;;;;;;1.50;1.40;;;18.80;39.30;;;;;;5021113;28;20460;-67
2022/01/10 07:04:22;;;;;;;1.50;1.40;;;18.80;40.10;;;;;;5024364;28;20609;-67
2022/01/10 07:06:47;;;;;;;1.77;1.67;;;18.80;39.30;;;;;;5052667;28;20460;-67
2022/01/10 07:09:13;;;;;;;1.60;1.50;;;18.80;39.30;;;;;;5025774;28;20472;-66
2022/01/10 07:11:39;;;;;;;1.90;1.80;;;18.80;39.30;;;;;;5020901;28;20223;-67
2022/01/10 07:14:04;;;;;;;1.60;1.50;;;18.80;39.30;;;;;;5015714;28;20227;-69
2022/01/10 07:16:30;;;;;;;1.73;1.63;;;18.80;39.30;;;;;;5023642;28;20271;-66
2022/01/10 07:18:56;;;;;;;1.50;1.40;;;18.80;39.30;;;;;;5021849;28;20224;-67
2022/01/10 07:21:22;;;;;;;1.70;1.60;;;18.80;40.00;;;;;;5021008;28;20219;-67
2022/01/10 07:23:48;;;;;;;1.57;1.47;;;18.80;39.30;;;;;;5019319;28;20298;-66
2022/01/10 07:26:14;;;;;;;1.53;1.40;;;18.80;39.30;;;;;;5020982;28;20255;-67
2022/01/10 07:28:40;;;;;;;2.00;1.90;;;18.80;39.20;;;;;;5003321;28;20487;-68
2022/01/10 07:31:06;;;;;;;1.80;1.70;;;18.80;39.20;;;;;;5000831;28;20453;-67
2022/01/10 07:33:32;;;;;;;1.97;1.60;;;18.80;39.20;;;;;;5003371;28;20457;-67
2022/01/10 07:35:58;;;;;;;2.33;1.73;;;18.80;39.30;;;;;;4999559;28;20462;-67
2022/01/10 07:38:24;;;;;;;1.70;1.60;;;18.80;39.20;;;;;;5002915;28;20239;-66
2022/01/10 07:40:50;;;;;;;1.73;1.40;;;18.80;39.20;;;;;;5035118;28;20317;-66
2022/01/10 07:43:16;;;;;;;1.63;1.53;;;18.80;39.30;;;;;;4997399;28;20285;-66
2022/01/10 07:45:42;;;;;;;1.60;1.50;;;18.80;39.20;;;;;;4999528;28;20507;-67
2022/01/10 07:48:08;;;;;;;1.60;1.50;;;18.80;39.20;;;;;;5004711;28;20687;-67
2022/01/10 07:50:34;;;;;;;1.70;1.60;;;18.80;39.20;;;;;;5000563;28;20239;-66
2022/01/10 07:52:59;;;;;;;1.80;1.70;;;18.80;39.20;;;;;;5004902;28;20461;-67
2022/01/10 07:55:25;;;;;;;1.80;1.70;;;18.80;39.20;;;;;;5003242;28;20266;-67
2022/01/10 07:57:50;;;;;;;1.87;1.77;;;18.80;39.10;;;;;;4999654;28;20224;-67
2022/01/10 08:00:16;;;;;;;1.93;1.70;;;18.80;39.20;;;;;;5001881;28;20256;-67
2022/01/10 08:02:42;;;;;;;1.93;1.77;;;18.80;39.10;;;;;;5001018;28;20669;-66
2022/01/10 08:05:09;;;;;;;2.80;2.00;;;18.80;39.10;;;;;;5001858;28;20235;-66
2022/01/10 08:07:35;;;;;;;1.57;1.47;;;18.80;39.10;;;;;;5002659;28;20266;-67
2022/01/10 08:10:03;;;;;;;1.70;1.60;;;18.80;39.20;;;;;;5000137;28;20515;-69
2022/01/10 08:12:28;;;;;;;1.67;1.57;;;18.80;39.10;;;;;;4999141;28;20462;-68
2022/01/10 08:14:54;;;;;;;1.87;1.77;;;18.80;39.10;;;;;;5002188;28;20939;-67
2022/01/10 08:17:20;;;;;;;1.63;1.53;;;18.80;39.10;;;;;;5001510;28;20310;-66
2022/01/10 08:19:45;;;;;;;1.73;1.63;;;18.80;39.10;;;;;;5001077;28;20221;-66
2022/01/10 08:22:11;;;;;;;1.90;1.80;;;18.80;39.10;;;;;;5000627;28;20581;-66
2022/01/10 08:24:37;;;;;;;2.53;1.80;;;18.80;39.00;;;;;;5000477;28;20228;-66
2022/01/10 08:27:03;;;;;;;1.90;1.80;;;18.80;39.10;;;;;;5010026;28;20829;-65
2022/01/10 08:29:29;;;;;;;2.43;1.67;;;18.80;39.10;;;;;;5023511;28;20644;-67
2022/01/10 08:31:55;;;;;;;2.50;1.80;;;18.80;39.10;;;;;;5018797;28;20236;-66
2022/01/10 08:34:24;;;;;;;1.80;1.70;;;18.80;39.10;;;;;;5021098;28;20460;-66
2022/01/10 08:36:50;;;;;;;1.80;1.70;;;18.80;39.00;;;;;;5021204;28;20978;-67
2022/01/10 08:39:17;;;;;;;1.80;1.70;;;18.80;39.00;;;;;;5020748;28;20515;-66
2022/01/10 08:41:43;;;;;;;1.83;1.73;;;18.80;39.10;;;;;;5023154;28;20461;-66
2022/01/10 08:44:09;;;;;;;1.80;1.70;;;18.80;39.00;;;;;;5025461;28;20495;-69
2022/01/10 08:46:35;;;;;;;2.00;1.90;;;18.80;39.10;;;;;;5020988;28;20223;-68
2022/01/10 08:49:01;;;;;;;1.73;1.63;;;18.80;39.00;;;;;;5023039;28;20243;-66
2022/01/10 08:51:29;;;;;;;1.70;1.60;;;18.80;39.10;;;;;;5019631;28;20455;-67
2022/01/10 08:53:55;;;;;;;1.80;1.70;;;18.80;39.00;;;;;;5020971;28;20492;-67
2022/01/10 08:56:20;;;;;;;1.60;1.50;;;18.80;39.00;;;;;;5022639;28;20453;-67
2022/01/10 08:58:46;;;;;;;1.90;1.80;;;18.80;39.00;;;;;;5018052;28;20453;-66
2022/01/10 09:01:12;;;;;;;2.10;1.83;;;18.80;39.00;;;;;;5022144;28;20224;-66
2022/01/10 09:03:38;;;;;;;2.00;1.80;;;18.90;39.00;;;;;;5020442;28;20243;-66
2022/01/10 09:06:03;;;;;;;1.90;1.80;;;18.80;39.00;;;;;;5018671;28;20249;-66
2022/01/10 09:08:35;;;;;;;2.00;1.90;;;18.80;38.90;;;;;;5021821;28;20448;-66
2022/01/10 09:11:01;;;;;;;1.70;1.60;;;18.80;38.90;;;;;;5015375;28;20223;-66
2022/01/10 09:13:27;;;;;;;1.90;1.80;;;18.80;38.90;;;;;;5022658;28;20455;-66
2022/01/10 09:15:53;;;;;;;1.90;1.80;;;18.80;39.00;;;;;;5022512;28;20842;-66
2022/01/10 09:18:19;;;;;;;2.10;2.00;;;18.80;38.90;;;;;;5019585;28;20278;-66
2022/01/10 09:20:46;;;;;;;2.30;2.10;;;18.80;38.80;;;;;;5019682;28;20219;-67
2022/01/10 09:23:12;;;;;;;1.73;1.63;;;18.80;38.80;;;;;;5018966;28;20219;-67
2022/01/10 09:25:38;;;;;;;1.80;1.70;;;18.90;39.00;;;;;;5020455;28;20441;-66
2022/01/10 09:28:04;;;;;;;2.00;1.83;;;18.80;38.90;;;;;;5021325;28;20963;-66
2022/01/10 09:30:31;;;;;;;1.90;1.80;;;18.80;38.90;;;;;;5020866;28;20650;-66
2022/01/10 09:32:56;;;;;;;1.70;1.60;;;18.80;38.90;;;;;;5021079;28;20555;-67
2022/01/10 09:35:23;;;;;;;1.77;1.67;;;18.80;38.80;;;;;;5015657;28;20211;-66
2022/01/10 09:37:49;;;;;;;1.80;1.70;;;18.80;38.90;;;;;;5020856;28;20310;-67
2022/01/10 09:40:16;;;;;;;1.70;1.60;;;18.80;39.00;;;;;;5016486;28;20534;-67
2022/01/10 09:42:42;;;;;;;2.23;2.03;;;18.80;38.80;;;;;;5020748;28;20491;-67
2022/01/10 09:45:09;;;;;;;1.73;1.63;;;18.80;38.90;;;;;;5024195;28;20443;-66
2022/01/10 09:47:35;;;;;;;1.73;1.63;;;18.80;38.90;;;;;;5021656;28;20519;-67
2022/01/10 09:50:03;;;;;;;2.33;2.23;;;18.80;39.00;;;;;;5018448;28;20490;-66
2022/01/10 09:52:29;;;;;;;1.70;1.60;;;18.80;39.00;;;;;;5020126;28;20511;-67
2022/01/10 09:54:55;;;;;;;1.70;1.60;;;18.80;39.00;;;;;;5016613;28;20452;-67
2022/01/10 09:57:21;;;;;;;1.90;1.80;;;18.80;38.90;;;;;;5018534;28;20506;-67
2022/01/10 09:59:48;;;;;;;1.90;1.80;;;18.80;39.00;;;;;;5022388;28;20255;-68
2022/01/10 10:02:15;;;;;;;2.03;1.93;;;18.80;38.90;;;;;;5018063;28;20470;-67
2022/01/10 10:04:41;;;;;;;1.63;1.53;;;18.80;38.90;;;;;;5024118;28;20436;-67
2022/01/10 10:07:07;;;;;;;1.70;1.60;;;18.80;39.00;;;;;;5017322;28;20445;-67
2022/01/10 10:09:34;;;;;;;2.03;1.93;;;18.80;38.90;;;;;;5019366;28;20488;-69
2022/01/10 10:12:02;;;;;;;2.13;1.93;;;18.80;39.00;;;;;;5018523;28;20884;-69
2022/01/10 10:14:27;;;;;;;1.73;1.63;;;18.80;39.00;;;;;;5021334;28;20449;-68
2022/01/10 10:16:56;;;;;;;1.90;1.80;;;18.80;38.90;;;;;;5023279;28;20522;-69
2022/01/10 10:19:29;;;;;;;2.10;2.00;;;18.80;39.00;;;;;;5021229;28;20267;-68
2022/01/10 10:21:57;;;;;;;2.00;1.80;;;18.80;39.00;;;;;;5022670;28;20488;-68
2022/01/10 10:24:24;;;;;;;1.73;1.63;;;18.80;38.90;;;;;;5023739;28;20479;-67
2022/01/10 10:26:50;;;;;;;2.40;2.30;;;18.80;39.00;;;;;;5026442;28;21062;-68
2022/01/10 10:29:18;;;;;;;2.00;1.90;;;18.70;38.90;;;;;;5025235;28;20815;-67
2022/01/10 10:31:45;;;;;;;1.97;1.87;;;18.70;38.90;;;;;;5023446;28;20452;-67
2022/01/10 10:34:12;;;;;;;2.07;1.90;;;18.80;39.00;;;;;;5020962;28;20464;-67
2022/01/10 10:36:38;;;;;;;1.60;1.50;;;18.80;39.00;;;;;;5021935;28;20412;-67
2022/01/10 10:39:07;;;;;;;2.33;2.23;;;18.70;38.90;;;;;;5023445;28;20475;-68
2022/01/10 10:41:34;;;;;;;1.87;1.77;;;18.70;39.00;;;;;;5021654;28;20215;-67
2022/01/10 10:44:01;;;;;;;1.87;1.77;;;18.80;39.00;;;;;;5023014;28;20463;-67
2022/01/10 10:46:27;;;;;;;1.70;1.60;;;18.70;39.00;;;;;;5023883;28;20474;-68
2022/01/10 10:48:59;;;;;;;2.20;2.00;;;18.70;38.90;;;;;;5020242;28;20435;-67
2022/01/10 10:51:30;;;;;;;1.80;1.70;;;18.70;39.00;;;;;;5023956;28;20453;-68
2022/01/10 10:54:07;;;;;;;2.10;2.00;;;18.70;39.00;;;;;;5022239;28;20428;-68
2022/01/10 10:56:41;;;;;;;2.03;1.83;;;18.70;39.00;;;;;;5017730;28;20453;-67
2022/01/10 10:59:07;;;;;;;2.17;2.00;;;18.70;39.00;;;;;;5022564;28;20462;-67
2022/01/10 11:01:36;;;;;;;1.80;1.70;;;18.70;39.00;;;;;;5022729;28;20447;-67
2022/01/10 11:04:03;;;;;;;1.90;1.70;;;18.70;39.00;;;;;;5020403;28;20527;-67
2022/01/10 11:06:31;;;;;;;1.97;1.87;;;18.70;39.00;;;;;;5020184;28;20424;-68
2022/01/10 11:08:59;;;;;;;2.30;2.20;;;18.70;39.00;;;;;;5022830;28;20445;-68
2022/01/10 11:11:25;;;;;;;1.90;1.80;;;18.70;39.00;;;;;;5024868;28;20525;-67
2022/01/10 11:13:55;;;;;;;2.17;2.00;;;18.70;39.00;;;;;;5019162;28;20554;-67
2022/01/10 11:16:21;;;;;;;2.20;2.10;;;18.70;39.10;;;;;;5019901;28;20435;-67
2022/01/10 11:18:48;;;;;;;2.23;1.90;;;18.70;39.00;;;;;;5020674;28;20456;-67
2022/01/10 11:21:15;;;;;;;1.93;1.83;;;18.70;39.00;;;;;;5019137;28;20443;-67
2022/01/10 11:23:44;;;;;;;1.90;1.80;;;18.70;39.00;;;;;;5021380;28;20427;-68
2022/01/10 11:26:10;;;;;;;2.17;2.07;;;18.70;39.10;;;;;;5025190;28;20423;-68
2022/01/10 11:28:50;;;;;;;1.60;1.50;;;18.70;39.00;;;;;;5021212;28;20442;-68
2022/01/10 11:31:26;;;;;;;1.97;1.87;;;18.70;39.00;;;;;;5022879;28;20552;-68
2022/01/10 11:33:53;;;;;;;2.17;1.67;;;18.60;38.90;;;;;;5022960;28;20443;-67
2022/01/10 11:36:22;;;;;;;2.10;2.00;;;18.70;39.00;;;;;;5021078;28;20435;-67
2022/01/10 11:38:51;;;;;;;1.90;1.80;;;18.60;39.00;;;;;;5021341;28;20427;-67
2022/01/10 11:41:26;;;;;;;2.20;2.10;;;18.70;39.10;;;;;;5024937;28;20458;-68
2022/01/10 11:43:56;;;;;;;2.00;1.73;;;18.60;38.90;;;;;;5020551;28;20457;-68
2022/01/10 11:46:28;;;;;;;2.27;2.07;;;18.70;39.00;;;;;;5020566;28;20506;-67
2022/01/10 11:49:04;;;;;;;2.30;2.20;;;18.70;39.10;;;;;;5020139;28;20973;-67
2022/01/10 11:51:39;;;;;;;1.90;1.70;;;18.70;39.00;;;;;;5020687;28;20453;-68
2022/01/10 11:54:15;;;;;;;1.90;1.80;;;18.70;39.10;;;;;;5023077;28;20468;-68
2022/01/10 11:56:46;;;;;;;1.70;1.60;;;18.60;39.00;;;;;;5022999;28;20498;-68
2022/01/10 11:59:35;;;;;;;2.00;1.90;;;18.60;39.00;;;;;;5023398;28;20460;-68
2022/01/10 12:02:05;;;;;;;1.60;1.50;;;18.70;39.00;;;;;;5039144;28;20493;-68
2022/01/10 12:04:34;;;;;;;1.90;1.80;;;18.70;39.10;;;;;;5020629;28;20430;-68
2022/01/10 12:07:01;;;;;;;1.70;1.60;;;18.60;39.00;;;;;;5019838;28;20490;-68
2022/01/10 12:09:27;;;;;;;1.97;1.87;;;18.60;39.00;;;;;;5020663;28;20468;-68
2022/01/10 12:11:53;;;;;;;1.93;1.83;;;18.70;39.10;;;;;;5022494;28;20454;-68
2022/01/10 12:14:22;;;;;;;2.10;2.00;;;18.70;39.10;;;;;;5022842;28;20456;-71
2022/01/10 12:16:48;;;;;;;1.70;1.60;;;18.60;39.00;;;;;;5019894;28;20512;-68
2022/01/10 12:19:14;;;;;;;1.93;1.83;;;18.70;39.10;;;;;;5023283;28;20448;-69
2022/01/10 12:21:41;;;;;;;1.70;1.60;;;18.70;39.00;;;;;;5019398;28;20539;-69
2022/01/10 12:24:07;;;;;;;1.80;1.70;;;18.70;39.10;;;;;;5020442;28;20949;-68
2022/01/10 12:26:34;;;;;;;1.83;1.73;;;18.70;39.00;;;;;;5022643;28;20416;-67
2022/01/10 12:29:01;;;;;;;1.63;1.53;;;18.70;39.10;;;;;;5023780;28;20453;-68
2022/01/10 12:31:29;;;;;;;1.80;1.70;;;18.70;39.10;;;;;;5017528;28;20539;-68
2022/01/10 12:33:56;;;;;;;1.63;1.53;;;18.70;39.00;;;;;;5023527;28;20483;-66
2022/01/10 12:36:23;;;;;;;1.70;1.60;;;18.70;39.00;;;;;;5021506;28;20439;-67
2022/01/10 12:38:55;;;;;;;2.50;1.83;;;18.70;39.00;;;;;;5016965;28;20447;-67
2022/01/10 12:41:20;;;;;;;2.17;1.97;;;18.70;39.00;;;;;;5019965;28;20462;-67
2022/01/10 12:43:48;;;;;;;2.00;1.87;;;18.60;38.90;;;;;;5018234;28;20455;-67
2022/01/10 12:46:18;;;;;;;1.73;1.63;;;18.70;39.00;;;;;;5022814;28;20227;-67
2022/01/10 12:48:50;;;;;;;1.80;1.70;;;18.70;39.10;;;;;;5017652;28;21001;-67
2022/01/10 12:51:17;;;;;;;1.97;1.73;;;18.70;39.10;;;;;;5020601;28;20555;-67
2022/01/10 12:53:47;;;;;;;2.07;1.87;;;18.60;39.00;;;;;;5018294;28;20441;-67
2022/01/10 12:56:15;;;;;;;1.77;1.67;;;18.60;39.00;;;;;;5022592;28;20539;-67
2022/01/10 12:58:41;;;;;;;1.83;1.73;;;18.70;39.10;;;;;;5021387;28;20419;-67